This is the latest recevied weather packets stored in our database for station/object K3SV. If no packets are shown the sender has not sent any weather packets the latest 10 day(s).
| Time | Temp. | Humidity | Pressure | Rain* | Wind** | Luminosity | Snow |
|---|---|---|---|---|---|---|---|
| 1777589297 | 27.22° C | 63% | 1010.2 hPa | 0 mm | - | 57 W/m² | - |
| 1777588994 | 27.78° C | 61% | 1010.3 hPa | 0 mm | - | 58 W/m² | - |
| 1777588690 | 27.78° C | 60% | 1010.3 hPa | 0 mm | - | 65 W/m² | - |
| 1777588386 | 28.33° C | 58% | 1010.4 hPa | 0 mm | - | 91 W/m² | - |
| 1777588082 | 28.33° C | 59% | 1010.2 hPa | 0 mm | - | 148 W/m² | - |
| 1777587778 | 28.33° C | 59% | 1010.2 hPa | 0 mm | - | 170 W/m² | - |
| 1777587476 | 28.89° C | 57% | 1010.5 hPa | 0 mm | - | 189 W/m² | - |
| 1777587174 | 28.89° C | 57% | 1010.4 hPa | 0 mm | - | 215 W/m² | - |
| 1777586869 | 30° C | 54% | 1010.4 hPa | 0 mm | - | 231 W/m² | - |
| 1777586565 | 29.44° C | 55% | 1010.5 hPa | 0 mm | - | 230 W/m² | - |
| 1777586261 | 28.89° C | 56% | 1010.7 hPa | 0 mm | - | 209 W/m² | - |
| 1777585958 | 29.44° C | 55% | 1010.4 hPa | 0 mm | - | 236 W/m² | - |
| 1777585654 | 30° C | 53% | 1010.7 hPa | 0 mm | - | 242 W/m² | - |
| 1777585349 | 29.44° C | 54% | 1010.3 hPa | 0 mm | - | 291 W/m² | - |
| 1777585044 | 28.89° C | 55% | 1010.4 hPa | 0 mm | - | 272 W/m² | - |
| 1777584740 | 30° C | 55% | 1010.5 hPa | 0 mm | - | 297 W/m² | - |
| 1777584439 | 30.56° C | 52% | 1010.5 hPa | 0 mm | - | 340 W/m² | - |
| 1777584135 | 29.44° C | 55% | 1010.5 hPa | 0 mm | - | 383 W/m² | - |
| 1777583834 | 29.44° C | 56% | 1010.6 hPa | 0 mm | - | 199 W/m² | - |
| 1777583530 | 30° C | 53% | 1010.5 hPa | 0 mm | - | 427 W/m² | - |
| 1777583229 | 31.11° C | 50% | 1010.5 hPa | 0 mm | - | 332 W/m² | - |
| 1777582924 | 30.56° C | 51% | 1010.5 hPa | 0 mm | - | 510 W/m² | - |
| 1777582622 | 30° C | 53% | 1010.5 hPa | 0 mm | - | 564 W/m² | - |
| 1777582317 | 29.44° C | 54% | 1010.4 hPa | 0 mm | - | 454 W/m² | - |
| 1777582015 | 28.89° C | 54% | 1010.7 hPa | 0 mm | - | 335 W/m² | - |
* Rain latest hour (hover to see other rain measurements)
** Current wind speed in m/s (hover to see current wind gust speed)